Platte, SD

4:14 PM CST on November 11, 2019 (GMT -0600)
Platte, SD | | Change Station
Active Advisory: Flood Warning

Elev 1634 ft 43.38 °N, 98.84 °W | Updated 13 minutes ago

Partly Cloudy
Partly Cloudy
15.5 °F
Feels Like 15 °F
N
0
Wind Variable Wind from WSW
Gusts 11.0 mph

Today
High -- | Low -- °F
--% Chance of Precip.
Yesterday
High -- | Low -- °F
Precip. -- in
Pressure 30.65 in
Visibility 10.0 miles
Clouds Mostly Cloudy 2900 ft
Scattered Clouds 3400 ft
Windchill 15 °F
Dew Point 6 °F
Humidity 65%
Rainfall 0.00 in
Snow Depth Not available.
7:23 AM 5:14 PM
Full, 100% visible
METAR K9V9 112155Z AUTO 30009G15KT 10SM BKN029 SCT034 M09/M15 A3065 RMK AO2 T10871148
Pressure 30.65 in
Visibility 10.0 miles
Clouds Mostly Cloudy 2900 ft
Scattered Clouds 3400 ft
Windchill 15 °F
Dew Point 6 °F
Humidity 65%
Rainfall 0.00 in
Snow Depth Not available.
7:23 AM 5:14 PM
Full, 100% visible
METAR K9V9 112155Z AUTO 30009G15KT 10SM BKN029 SCT034 M09/M15 A3065 RMK AO2 T10871148

Get Your Daily Forecast Email!

Thanks for signing up!

Be on the lookout for a verification email in your inbox.

You'll start receiving severe weather alerts in your inbox..

×

10-Day Weather Forecast

Almanac

Astronomy

Nov. 11, 2019 Rise Set
Actual Time
Civil Twilight
Nautical Twilight
Astronomical Twilight
Moon
Length of Visible Light
Length of Day
Tomorrow will be .
, % of the Moon is Illuminated

Today's Extremes

State Highs State Lows

Community

WunderPhotos

Category 6

Welcome to Category 6. This is the collective home for Weather Underground's featured writeups by Dr. Jeff Masters (right), Bob Henson (left), Chris Burt, and other regular contributors.

Nearby

Air Quality

  Air Quality AQ Index Pollutant
Not available.

Snow Depth

Station Depth Elevation

Earthquake Activity

City Distance Mag. Time & Date
Minimum magnitude displayed is 2.5.

Coastal Water Temperatures

Place Temperature

Stations

Nearby Weather Stations

Station Location Temp. Windchill Dew Point Humidity Wind Precip. Elev Updated Type
                   

Watches & Warnings

Flood Warning
Issued: 9:10 AM CST Nov. 11, 2019 – National Weather Service

The Flood Warning continues for
the Missouri River near Verdel.
* Until further notice.
* At 08am Monday the stage was 24.77 feet.
* Flood stage is 24.00 feet.
* At stages near 25.0 feet... boat docks at lazy River Acres near
Verdel will be flooded and some permanent homes will be surrounded by
water.


Lat... Lon 4286 9831 4291 9830 4284 9810 4279 9811
          4282 9816 4285 9825




910 am CST Mon Nov 11 2019

The Flood Warning continues for
the Missouri River near Greenwood.
* Until further notice.
* At 08am Monday the stage was 32.07 feet.
* Flood stage is 30.00 feet.


Lat... Lon 4304 9859 4309 9854 4296 9844 4291 9830
          4286 9831 4293 9849